Time;durP1;ratioP1;P1;durP2;ratioP2;P2;SDS_P1;SDS_P2;PMS_P1;PMS_P2;Temp;Humidity;BMP_temperature;BMP_pressure;BME280_temperature;BME280_humidity;BME280_pressure;Samples;Min_cycle;Max_cycle;Signal;HPM_P1;HPM_P2
2021/12/14 00:00:49;;;;;;;19.25;10.00;;;7.20;99.90;;;;;;7367025;19;20123;-80
2021/12/14 00:03:20;;;;;;;11.82;8.10;;;7.20;99.90;;;;;;7376079;19;20147;-79
2021/12/14 00:05:55;;;;;;;13.55;8.45;;;7.30;99.90;;;;;;7371270;19;20138;-79
2021/12/14 00:08:23;;;;;;;17.95;9.18;;;7.40;99.90;;;;;;7375605;19;20160;-80
2021/12/14 00:11:12;;;;;;;15.00;10.10;;;7.30;99.90;;;;;;7370423;19;20174;-80
2021/12/14 00:16:12;;;;;;;22.45;11.07;;;7.40;99.90;;;;;;7378777;19;20123;-80
2021/12/14 00:18:42;;;;;;;16.27;9.02;;;7.40;99.90;;;;;;7342559;19;20139;-81
2021/12/14 00:21:20;;;;;;;16.80;9.88;;;7.40;99.90;;;;;;7370333;19;20133;-80
2021/12/14 00:24:06;;;;;;;14.20;9.13;;;7.50;99.90;;;;;;7378540;19;20135;-80
2021/12/14 00:26:54;;;;;;;19.30;11.23;;;7.40;99.90;;;;;;7381356;19;20728;-80
2021/12/14 00:29:34;;;;;;;13.95;8.55;;;7.30;99.90;;;;;;7371947;19;20179;-77
2021/12/14 00:32:07;;;;;;;17.60;9.90;;;7.30;99.90;;;;;;7363841;19;20127;-78
2021/12/14 00:34:41;;;;;;;14.48;8.50;;;7.30;99.90;;;;;;7375265;19;20203;-77
2021/12/14 00:37:13;;;;;;;16.65;10.07;;;7.30;99.90;;;;;;7373230;19;20135;-77
2021/12/14 00:39:41;;;;;;;17.15;11.07;;;7.30;99.90;;;;;;7376036;19;20549;-76
2021/12/14 00:42:19;;;;;;;19.35;10.60;;;7.20;99.90;;;;;;7364003;19;20147;-76
2021/12/14 00:44:48;;;;;;;14.52;9.82;;;7.10;99.90;;;;;;7375610;19;20134;-76
2021/12/14 00:47:17;;;;;;;15.52;8.82;;;7.20;99.90;;;;;;7349318;19;20152;-76
2021/12/14 00:49:45;;;;;;;15.73;8.82;;;7.20;99.90;;;;;;7374449;19;20162;-76
2021/12/14 00:52:17;;;;;;;18.67;9.00;;;7.20;99.90;;;;;;7373574;19;20139;-76
2021/12/14 00:54:46;;;;;;;14.27;8.50;;;7.20;99.90;;;;;;7344051;19;22547;-76
2021/12/14 00:57:13;;;;;;;14.05;8.32;;;7.20;99.90;;;;;;7371276;19;20136;-75
2021/12/14 00:59:39;;;;;;;16.00;9.20;;;7.30;99.90;;;;;;7362977;19;20144;-76
2021/12/14 01:02:15;;;;;;;19.95;9.07;;;7.50;99.90;;;;;;7359275;19;20132;-77
2021/12/14 01:04:59;;;;;;;16.40;8.85;;;7.40;99.90;;;;;;7368920;19;20132;-77
2021/12/14 01:07:33;;;;;;;16.17;8.52;;;7.30;99.90;;;;;;7343263;19;20157;-76
2021/12/14 01:10:07;;;;;;;20.40;8.02;;;7.20;99.90;;;;;;7343633;19;20848;-76
2021/12/14 01:12:45;;;;;;;15.52;7.95;;;7.10;99.90;;;;;;7371823;19;20131;-76
2021/12/14 01:15:31;;;;;;;11.73;7.88;;;7.10;99.90;;;;;;7375386;19;20127;-77
2021/12/14 01:18:29;;;;;;;15.50;7.47;;;7.30;99.90;;;;;;7379704;19;20206;-76
2021/12/14 01:24:00;;;;;;;15.00;7.53;;;7.10;99.90;;;;;;7382779;19;20148;-77
2021/12/14 01:26:32;;;;;;;14.68;7.88;;;7.00;99.90;;;;;;7370698;19;20188;-77
2021/12/14 01:29:00;;;;;;;13.50;6.72;;;7.10;99.90;;;;;;7377861;19;20143;-77
2021/12/14 01:31:39;;;;;;;14.68;8.00;;;7.10;99.90;;;;;;7379354;19;20143;-77
2021/12/14 01:34:15;;;;;;;13.77;8.00;;;7.20;99.90;;;;;;7382064;19;20131;-77
2021/12/14 01:36:51;;;;;;;12.05;7.15;;;7.20;99.90;;;;;;7374543;19;20139;-77
2021/12/14 01:42:11;;;;;;;10.35;6.78;;;7.10;99.90;;;;;;7374709;19;20147;-77
2021/12/14 01:44:45;;;;;;;12.55;7.18;;;7.10;99.90;;;;;;7370995;19;20146;-77
2021/12/14 01:47:25;;;;;;;15.65;8.98;;;7.10;99.90;;;;;;7369137;19;20558;-77
2021/12/14 01:50:17;;;;;;;15.02;8.63;;;7.10;99.90;;;;;;7377960;19;20589;-76
2021/12/14 01:53:23;;;;;;;10.55;6.22;;;7.20;99.90;;;;;;7373794;19;20535;-77
2021/12/14 01:55:57;;;;;;;12.82;7.38;;;7.10;99.90;;;;;;7370659;19;20173;-77
2021/12/14 01:58:33;;;;;;;16.58;8.35;;;7.10;99.90;;;;;;7375513;19;20203;-77
2021/12/14 02:01:11;;;;;;;13.02;6.88;;;7.00;99.90;;;;;;7377594;19;20128;-77
2021/12/14 02:03:48;;;;;;;10.70;6.85;;;7.10;99.90;;;;;;7374974;19;20142;-77
2021/12/14 02:06:21;;;;;;;16.75;7.75;;;7.10;99.90;;;;;;7377518;19;20151;-77
2021/12/14 02:09:13;;;;;;;12.48;6.05;;;7.10;99.90;;;;;;7376677;19;20897;-77
2021/12/14 02:11:56;;;;;;;15.02;7.38;;;7.00;99.90;;;;;;7368757;19;20143;-77
2021/12/14 02:14:27;;;;;;;16.48;8.10;;;6.90;99.90;;;;;;7369341;19;20124;-71
2021/12/14 02:17:00;;;;;;;15.55;8.40;;;6.90;99.90;;;;;;7372001;19;20136;-71
2021/12/14 02:19:30;;;;;;;15.73;8.98;;;7.00;99.90;;;;;;7373806;19;20485;-71
2021/12/14 02:21:59;;;;;;;14.43;7.97;;;7.00;99.90;;;;;;7381481;19;20152;-71
2021/12/14 02:24:29;;;;;;;15.15;8.43;;;7.00;99.90;;;;;;7378737;19;20190;-71
2021/12/14 02:27:01;;;;;;;14.80;7.85;;;7.10;99.90;;;;;;7366127;19;20139;-71
2021/12/14 02:29:36;;;;;;;14.93;7.85;;;7.00;99.90;;;;;;7372156;19;20128;-71
2021/12/14 02:32:18;;;;;;;15.90;8.82;;;7.00;99.90;;;;;;7371684;19;20141;-71
2021/12/14 02:34:52;;;;;;;12.35;8.00;;;7.00;99.90;;;;;;7371931;19;20610;-71
2021/12/14 02:37:44;;;;;;;12.75;6.63;;;6.80;99.90;;;;;;7376990;19;20832;-71
2021/12/14 02:40:53;;;;;;;11.43;6.07;;;6.80;99.90;;;;;;7368430;19;20143;-71
2021/12/14 02:43:42;;;;;;;14.75;7.82;;;6.90;99.90;;;;;;7375682;19;20150;-71
2021/12/14 02:46:21;;;;;;;12.07;6.88;;;6.90;99.90;;;;;;7372657;19;20153;-71
2021/12/14 02:48:56;;;;;;;14.25;8.30;;;6.80;99.90;;;;;;7379501;19;20124;-72
2021/12/14 02:51:26;;;;;;;11.98;6.80;;;6.80;99.90;;;;;;7377334;19;21134;-71
2021/12/14 02:53:59;;;;;;;15.27;7.43;;;6.60;99.90;;;;;;7361725;19;20136;-71
2021/12/14 02:56:29;;;;;;;12.52;7.28;;;6.50;99.90;;;;;;7378139;19;20125;-70
2021/12/14 02:59:22;;;;;;;11.40;6.75;;;6.50;99.90;;;;;;7379673;19;20140;-70
2021/12/14 03:01:54;;;;;;;13.57;6.78;;;6.50;99.90;;;;;;7379850;19;20139;-71
2021/12/14 03:04:23;;;;;;;12.68;7.35;;;6.60;99.90;;;;;;7372442;19;20147;-73
2021/12/14 03:06:59;;;;;;;13.80;6.93;;;6.60;99.90;;;;;;7382223;19;20161;-71
2021/12/14 03:09:55;;;;;;;15.25;7.82;;;6.60;99.90;;;;;;7367893;19;20160;-76
2021/12/14 03:12:40;;;;;;;15.93;8.07;;;6.60;99.90;;;;;;7377657;19;20147;-76
2021/12/14 03:15:10;;;;;;;11.90;6.72;;;6.50;99.90;;;;;;7374543;19;20127;-76
2021/12/14 03:17:43;;;;;;;14.68;7.72;;;6.50;99.90;;;;;;7376688;19;20130;-76
2021/12/14 03:20:27;;;;;;;12.82;6.85;;;6.50;99.90;;;;;;7375110;19;20609;-76
2021/12/14 03:23:12;;;;;;;12.10;6.00;;;6.50;99.90;;;;;;7368376;19;20529;-76
2021/12/14 03:25:44;;;;;;;15.73;6.43;;;6.60;99.90;;;;;;7378998;19;20203;-76
2021/12/14 03:28:15;;;;;;;17.30;9.65;;;6.60;99.90;;;;;;7379247;19;21512;-77
2021/12/14 03:31:09;;;;;;;16.02;8.07;;;6.50;99.90;;;;;;7375780;19;20160;-76
2021/12/14 03:33:44;;;;;;;15.80;6.65;;;6.50;99.90;;;;;;7376862;19;20191;-76
2021/12/14 03:36:16;;;;;;;15.57;7.18;;;6.40;99.90;;;;;;7372145;19;20211;-77
2021/12/14 03:39:00;;;;;;;14.05;6.68;;;6.40;99.90;;;;;;7373956;19;20143;-76
2021/12/14 03:41:57;;;;;;;14.40;6.68;;;6.50;99.90;;;;;;7374347;19;20131;-76
2021/12/14 03:44:47;;;;;;;13.13;6.25;;;6.40;99.90;;;;;;7377534;19;20169;-76
2021/12/14 03:47:20;;;;;;;16.38;7.00;;;6.50;99.90;;;;;;7372971;19;20653;-76
2021/12/14 03:49:54;;;;;;;16.38;6.07;;;6.50;99.90;;;;;;7378198;19;20135;-76
2021/12/14 03:52:35;;;;;;;15.88;6.30;;;6.60;99.90;;;;;;7372933;19;20139;-76
2021/12/14 03:55:17;;;;;;;10.68;6.63;;;6.70;99.90;;;;;;7365585;19;20163;-76
2021/12/14 03:57:44;;;;;;;13.30;6.70;;;6.80;99.90;;;;;;7374645;19;20207;-76
2021/12/14 04:00:24;;;;;;;15.48;7.30;;;6.80;99.90;;;;;;7376406;19;20476;-77
2021/12/14 04:03:01;;;;;;;17.92;7.32;;;6.70;99.90;;;;;;7379741;19;20151;-77
2021/12/14 04:05:45;;;;;;;11.30;5.88;;;6.80;99.90;;;;;;7364144;19;20131;-77
2021/12/14 04:08:14;;;;;;;11.43;6.10;;;6.90;99.90;;;;;;7378025;19;20147;-77
2021/12/14 04:10:46;;;;;;;13.75;6.13;;;6.90;99.90;;;;;;7373879;19;20622;-71
2021/12/14 04:13:18;;;;;;;12.10;6.35;;;6.90;99.90;;;;;;7375612;19;20135;-71
2021/12/14 04:15:49;;;;;;;13.02;7.10;;;6.70;99.90;;;;;;7378600;19;20132;-71
2021/12/14 04:18:16;;;;;;;13.45;7.10;;;6.70;99.90;;;;;;7373289;19;20139;-71
2021/12/14 04:20:45;;;;;;;13.43;6.40;;;6.80;99.90;;;;;;7369049;19;20171;-71
2021/12/14 04:23:22;;;;;;;10.30;5.60;;;6.80;99.90;;;;;;7378363;19;20158;-71
2021/12/14 04:25:55;;;;;;;13.73;7.18;;;6.70;99.90;;;;;;7373202;19;20128;-71
2021/12/14 04:28:29;;;;;;;17.35;8.52;;;6.80;99.90;;;;;;7375578;19;20127;-71
2021/12/14 04:31:01;;;;;;;18.90;8.80;;;6.80;99.90;;;;;;7381266;19;20143;-71
2021/12/14 04:33:38;;;;;;;16.80;7.82;;;6.70;99.90;;;;;;7380813;19;20210;-70
2021/12/14 04:36:10;;;;;;;14.80;7.57;;;6.80;99.90;;;;;;7376572;19;20825;-71
2021/12/14 04:38:50;;;;;;;18.90;7.97;;;6.80;99.90;;;;;;7382107;19;20128;-71
2021/12/14 04:52:35;;;;;;;15.13;7.55;;;6.60;99.90;;;;;;7373920;19;20147;-77
2021/12/14 04:55:11;;;;;;;13.57;7.80;;;6.50;99.90;;;;;;7376061;19;20178;-76
2021/12/14 04:57:45;;;;;;;16.75;9.00;;;6.40;99.90;;;;;;7368176;19;20159;-76
2021/12/14 05:00:26;;;;;;;15.23;7.30;;;6.40;99.90;;;;;;7376294;19;20458;-76
2021/12/14 05:03:31;;;;;;;16.95;8.82;;;6.30;99.90;;;;;;7376336;19;20131;-76
2021/12/14 05:06:14;;;;;;;14.35;8.35;;;6.40;99.90;;;;;;7368004;19;21405;-75
2021/12/14 05:11:24;;;;;;;13.43;8.18;;;6.40;99.90;;;;;;7372834;19;20167;-75
2021/12/14 05:14:01;;;;;;;14.40;7.65;;;6.40;99.90;;;;;;7376154;19;20136;-76
2021/12/14 05:16:39;;;;;;;13.73;7.30;;;6.30;99.90;;;;;;7373268;19;20143;-77
2021/12/14 05:19:12;;;;;;;15.90;8.10;;;6.40;99.90;;;;;;7381164;19;20193;-76
2021/12/14 05:21:41;;;;;;;12.25;7.38;;;6.40;99.90;;;;;;7375765;19;20880;-75
2021/12/14 05:24:18;;;;;;;14.98;7.65;;;6.60;99.90;;;;;;7386638;19;20598;-77
2021/12/14 05:26:56;;;;;;;12.45;6.95;;;6.60;99.90;;;;;;7364089;19;21239;-75
2021/12/14 05:29:26;;;;;;;10.65;5.85;;;6.70;99.90;;;;;;7377608;19;20135;-76
2021/12/14 05:31:56;;;;;;;11.15;6.10;;;6.90;99.90;;;;;;7380570;19;20139;-73
2021/12/14 05:34:29;;;;;;;10.70;7.10;;;7.00;99.90;;;;;;7378154;19;20214;-76
2021/12/14 05:37:01;;;;;;;10.13;6.00;;;7.00;99.90;;;;;;7375603;19;20131;-77
2021/12/14 05:39:51;;;;;;;14.43;7.40;;;7.10;99.90;;;;;;7376784;19;20135;-76
2021/12/14 05:45:20;;;;;;;10.60;5.50;;;7.30;99.90;;;;;;7377633;19;20518;-77
2021/12/14 05:47:52;;;;;;;8.43;5.15;;;7.40;99.90;;;;;;7376395;19;20160;-76
2021/12/14 05:50:45;;;;;;;10.43;5.28;;;7.30;99.90;;;;;;7378572;19;20138;-76
2021/12/14 05:53:40;;;;;;;7.60;4.45;;;7.10;99.90;;;;;;7379750;19;20515;-76
2021/12/14 05:56:21;;;;;;;8.35;4.90;;;7.10;99.90;;;;;;7375607;19;20230;-76
2021/12/14 05:58:52;;;;;;;9.65;5.03;;;7.10;99.90;;;;;;7382380;19;20202;-78
2021/12/14 06:01:23;;;;;;;9.20;4.70;;;7.00;99.90;;;;;;7383654;19;20139;-76
2021/12/14 06:03:58;;;;;;;7.07;4.57;;;7.00;99.90;;;;;;7383037;19;20141;-76
2021/12/14 06:06:32;;;;;;;8.50;4.82;;;7.20;99.90;;;;;;7382970;19;20782;-77
2021/12/14 06:09:21;;;;;;;8.43;5.18;;;7.30;99.90;;;;;;7380695;19;20155;-77
2021/12/14 06:12:13;;;;;;;11.65;5.88;;;7.40;99.90;;;;;;7384118;19;20172;-77
2021/12/14 06:14:54;;;;;;;9.45;5.57;;;7.10;99.90;;;;;;7387447;19;20147;-76
2021/12/14 06:17:31;;;;;;;8.55;5.22;;;7.00;99.90;;;;;;7383174;19;20135;-77
2021/12/14 06:20:05;;;;;;;8.73;4.70;;;7.20;99.90;;;;;;7375744;19;20143;-77
2021/12/14 06:22:35;;;;;;;7.78;5.00;;;7.10;99.90;;;;;;7384033;19;20175;-77
2021/12/14 06:25:09;;;;;;;16.35;8.75;;;7.20;99.90;;;;;;7382943;19;20164;-78
2021/12/14 06:27:37;;;;;;;10.80;7.00;;;7.20;99.90;;;;;;7385190;19;20135;-77
2021/12/14 06:30:13;;;;;;;10.10;5.10;;;7.30;99.90;;;;;;7381324;19;20131;-77
2021/12/14 06:32:46;;;;;;;14.70;6.75;;;7.10;99.90;;;;;;7384355;19;20503;-77
2021/12/14 06:35:19;;;;;;;10.35;7.10;;;7.00;99.90;;;;;;7378328;19;20236;-77
2021/12/14 06:40:56;;;;;;;9.00;4.70;;;7.20;99.90;;;;;;7381970;19;20132;-77
2021/12/14 06:43:40;;;;;;;6.10;4.40;;;7.10;99.90;;;;;;7374375;19;20190;-77
2021/12/14 06:46:27;;;;;;;6.60;4.40;;;7.10;99.90;;;;;;7374448;19;20154;-77
2021/12/14 06:48:59;;;;;;;6.07;4.32;;;6.70;99.90;;;;;;7380243;19;20134;-77
2021/12/14 06:51:36;;;;;;;6.85;3.90;;;6.50;99.90;;;;;;7377587;19;20135;-77
2021/12/14 06:54:30;;;;;;;7.00;5.32;;;6.50;99.90;;;;;;7375061;19;20605;-77
2021/12/14 06:57:21;;;;;;;6.80;4.90;;;6.60;99.90;;;;;;7382836;19;20154;-76
2021/12/14 07:00:02;;;;;;;6.68;4.30;;;6.70;99.90;;;;;;7386536;19;20136;-76
2021/12/14 07:02:51;;;;;;;5.82;4.50;;;6.60;99.90;;;;;;7383354;19;20147;-76
2021/12/14 07:05:49;;;;;;;7.85;4.72;;;6.50;99.90;;;;;;7382852;19;20155;-77
2021/12/14 07:08:27;;;;;;;6.65;4.50;;;6.60;99.90;;;;;;7378886;19;20139;-76
2021/12/14 07:10:56;;;;;;;11.40;4.72;;;6.80;99.90;;;;;;7374971;19;20675;-77
2021/12/14 07:13:28;;;;;;;8.70;4.20;;;6.90;99.90;;;;;;7381896;19;20139;-76
2021/12/14 07:15:57;;;;;;;4.63;3.65;;;6.80;99.90;;;;;;7378155;19;20139;-77
2021/12/14 07:18:27;;;;;;;6.97;4.47;;;6.70;99.90;;;;;;7381229;19;20127;-76
2021/12/14 07:20:56;;;;;;;6.20;4.45;;;6.80;99.90;;;;;;7380876;19;20135;-76
2021/12/14 07:23:29;;;;;;;5.63;3.60;;;6.80;99.90;;;;;;7380114;19;20139;-77
2021/12/14 07:26:00;;;;;;;4.28;3.70;;;6.80;99.90;;;;;;7375662;19;20605;-77
2021/12/14 07:28:39;;;;;;;5.07;4.00;;;6.60;99.90;;;;;;7381786;19;20148;-76
2021/12/14 07:31:19;;;;;;;5.78;4.50;;;6.60;99.90;;;;;;7375435;19;20186;-76
2021/12/14 07:33:54;;;;;;;6.25;4.35;;;6.40;99.90;;;;;;7379530;19;20139;-77
2021/12/14 07:36:24;;;;;;;7.70;3.80;;;6.50;99.90;;;;;;7376049;19;21253;-76
2021/12/14 07:38:59;;;;;;;5.55;3.22;;;6.60;99.90;;;;;;7369295;19;20147;-76
2021/12/14 07:41:40;;;;;;;7.30;3.70;;;6.80;99.90;;;;;;7374506;19;20139;-76
2021/12/14 07:44:33;;;;;;;5.47;3.67;;;6.90;99.90;;;;;;7377953;19;20135;-76
2021/12/14 07:47:17;;;;;;;5.95;4.47;;;6.70;99.90;;;;;;7370090;19;20124;-77
2021/12/14 07:49:43;;;;;;;5.05;3.65;;;6.60;99.90;;;;;;7369751;19;20628;-76
2021/12/14 07:52:21;;;;;;;4.95;3.42;;;6.50;99.90;;;;;;7376330;19;20250;-76
2021/12/14 07:54:47;;;;;;;6.18;4.07;;;6.40;99.90;;;;;;7369084;19;20174;-77
2021/12/14 07:57:23;;;;;;;6.50;3.75;;;6.20;99.90;;;;;;7374953;19;20127;-77
2021/12/14 08:00:00;;;;;;;7.03;4.18;;;6.10;99.90;;;;;;7377956;19;20135;-74
2021/12/14 08:02:35;;;;;;;6.63;4.28;;;5.90;99.90;;;;;;7376279;19;20170;-72
2021/12/14 08:05:15;;;;;;;6.90;4.43;;;5.90;99.90;;;;;;7381761;19;20131;-70
2021/12/14 08:08:15;;;;;;;7.28;4.53;;;6.10;99.90;;;;;;7376514;19;20187;-72
2021/12/14 08:11:08;;;;;;;6.50;3.80;;;6.30;99.90;;;;;;7376201;19;20155;-71
2021/12/14 08:14:05;;;;;;;7.32;4.60;;;6.30;99.90;;;;;;7375485;19;20195;-72
2021/12/14 08:16:51;;;;;;;6.68;4.30;;;6.50;99.90;;;;;;7356677;19;20520;-71
2021/12/14 08:19:31;;;;;;;7.00;5.05;;;6.40;99.90;;;;;;7377843;19;20475;-70
2021/12/14 08:22:00;;;;;;;5.82;3.92;;;6.50;99.90;;;;;;7371334;19;20605;-70
2021/12/14 08:24:27;;;;;;;7.25;4.80;;;6.40;99.90;;;;;;7360268;19;20631;-70
2021/12/14 08:27:00;;;;;;;6.57;4.63;;;6.30;99.90;;;;;;7369745;19;20163;-70
2021/12/14 08:29:32;;;;;;;6.32;4.15;;;6.20;99.90;;;;;;7367981;19;20150;-70
2021/12/14 08:32:12;;;;;;;8.52;4.25;;;6.30;99.90;;;;;;7374901;19;20160;-70
2021/12/14 08:34:46;;;;;;;7.32;4.75;;;6.60;99.90;;;;;;7371225;19;20135;-70
2021/12/14 08:37:25;;;;;;;6.70;4.90;;;6.90;99.90;;;;;;7371891;19;20128;-70
2021/12/14 08:39:58;;;;;;;7.85;4.40;;;7.20;99.90;;;;;;7376760;19;20160;-70
2021/12/14 08:42:45;;;;;;;9.32;5.55;;;7.40;99.90;;;;;;7353390;19;20179;-70
2021/12/14 08:45:25;;;;;;;7.13;5.30;;;7.60;99.90;;;;;;7368255;19;20143;-70
2021/12/14 08:48:33;;;;;;;7.97;4.93;;;7.80;99.90;;;;;;7369372;19;20131;-70
2021/12/14 08:51:16;;;;;;;6.00;4.70;;;7.90;99.90;;;;;;7371965;19;20163;-70
2021/12/14 08:53:53;;;;;;;6.82;4.68;;;7.90;99.90;;;;;;7371140;19;20664;-69
2021/12/14 08:56:20;;;;;;;6.43;4.38;;;7.90;99.90;;;;;;7372395;19;20139;-70
2021/12/14 08:58:50;;;;;;;9.05;5.07;;;8.00;99.90;;;;;;7375641;19;20124;-70
2021/12/14 09:01:26;;;;;;;6.53;4.68;;;8.20;99.90;;;;;;7362614;19;20139;-68
2021/12/14 09:04:00;;;;;;;6.25;4.57;;;8.20;99.90;;;;;;7365647;19;20135;-68
2021/12/14 09:06:33;;;;;;;7.45;4.60;;;8.10;99.90;;;;;;7369306;19;20135;-68
2021/12/14 09:09:03;;;;;;;6.90;4.80;;;8.40;99.90;;;;;;7365375;19;20787;-68
2021/12/14 09:11:32;;;;;;;5.90;4.82;;;8.80;99.90;;;;;;7353118;19;20140;-68
2021/12/14 09:14:02;;;;;;;5.18;4.25;;;9.30;99.90;;;;;;7368372;19;20139;-66
2021/12/14 09:16:33;;;;;;;5.13;3.80;;;9.90;99.90;;;;;;7362934;19;20147;-68
2021/12/14 09:19:12;;;;;;;7.17;5.17;;;11.00;99.90;;;;;;7365929;19;20643;-69
2021/12/14 09:21:47;;;;;;;6.00;4.80;;;11.40;99.90;;;;;;7378101;19;20368;-71
2021/12/14 09:24:21;;;;;;;5.88;5.25;;;11.10;99.90;;;;;;7378995;19;20368;-71
2021/12/14 09:26:57;;;;;;;7.83;5.07;;;10.60;99.90;;;;;;7382569;19;20796;-71
2021/12/14 09:29:25;;;;;;;8.50;5.50;;;10.20;99.90;;;;;;7382867;19;20432;-71
2021/12/14 09:31:54;;;;;;;6.22;4.70;;;10.10;99.90;;;;;;7382234;19;20404;-71
2021/12/14 09:34:24;;;;;;;8.57;5.63;;;10.20;99.90;;;;;;7383583;19;20523;-70
2021/12/14 09:36:56;;;;;;;13.73;5.37;;;10.10;99.90;;;;;;7381684;19;20400;-69
2021/12/14 09:39:31;;;;;;;7.43;5.00;;;10.20;99.90;;;;;;7383843;19;20416;-69
2021/12/14 09:42:09;;;;;;;13.30;4.77;;;10.30;99.90;;;;;;7384740;19;21092;-70
2021/12/14 09:44:39;;;;;;;5.70;4.87;;;10.50;99.90;;;;;;7386068;19;20372;-69
2021/12/14 09:47:14;;;;;;;7.40;4.70;;;10.50;99.90;;;;;;7383123;19;20372;-70
2021/12/14 09:49:43;;;;;;;6.97;5.40;;;10.50;99.90;;;;;;7383761;19;20467;-70
2021/12/14 09:52:20;;;;;;;5.70;4.33;;;10.60;99.90;;;;;;7378878;19;20412;-70
2021/12/14 09:54:50;;;;;;;7.30;4.87;;;10.50;99.90;;;;;;7379914;19;21182;-71
2021/12/14 09:57:36;;;;;;;5.83;4.40;;;10.50;99.90;;;;;;7383776;19;20376;-70
2021/12/14 10:00:18;;;;;;;6.67;4.60;;;10.60;99.90;;;;;;7383677;19;20459;-70
2021/12/14 10:02:51;;;;;;;6.47;5.23;;;10.70;99.90;;;;;;7382123;19;20421;-70
2021/12/14 10:05:38;;;;;;;6.70;5.10;;;10.50;99.90;;;;;;7384012;19;20394;-70
2021/12/14 10:08:17;;;;;;;5.83;4.10;;;10.50;99.90;;;;;;7381270;19;21224;-70
2021/12/14 10:10:58;;;;;;;5.50;4.37;;;10.40;99.90;;;;;;7382832;19;20380;-70
2021/12/14 10:13:25;;;;;;;4.47;3.10;;;10.40;99.90;;;;;;7381977;19;20392;-70
2021/12/14 10:15:56;;;;;;;5.90;4.27;;;10.50;99.90;;;;;;7379184;19;20393;-70
2021/12/14 10:18:44;;;;;;;6.30;4.00;;;10.50;99.90;;;;;;7380881;19;20379;-70
2021/12/14 10:21:26;;;;;;;7.13;4.23;;;10.50;99.90;;;;;;7384542;19;20451;-70
2021/12/14 10:23:56;;;;;;;6.73;4.20;;;10.50;99.90;;;;;;7382763;19;20424;-71
2021/12/14 10:26:29;;;;;;;5.20;3.80;;;10.40;99.90;;;;;;7383075;19;20453;-71
2021/12/14 10:29:03;;;;;;;6.33;4.30;;;10.40;99.90;;;;;;7381189;19;20909;-71
2021/12/14 10:31:40;;;;;;;4.53;3.87;;;10.30;99.90;;;;;;7381041;19;20431;-71
2021/12/14 10:34:21;;;;;;;6.53;4.80;;;10.40;99.90;;;;;;7376098;19;20404;-71
2021/12/14 10:37:00;;;;;;;5.10;4.23;;;10.40;99.90;;;;;;7383281;19;20738;-71
2021/12/14 10:44:54;;;;;;;10.23;6.87;;;10.40;99.90;;;;;;7384357;19;20423;-70
2021/12/14 10:47:24;;;;;;;9.10;5.17;;;10.70;99.90;;;;;;7376831;19;20416;-70
2021/12/14 10:49:53;;;;;;;7.17;4.80;;;10.60;99.90;;;;;;7368129;19;20412;-68
2021/12/14 10:52:28;;;;;;;7.33;5.60;;;10.70;99.90;;;;;;7370437;19;20472;-71
2021/12/14 10:55:06;;;;;;;10.00;6.07;;;10.80;99.90;;;;;;7376516;19;21060;-71
2021/12/14 10:57:35;;;;;;;8.40;4.50;;;11.00;99.90;;;;;;7372220;19;20669;-71
2021/12/14 11:00:09;;;;;;;7.37;5.30;;;11.20;99.90;;;;;;7377943;19;20920;-73
2021/12/14 11:02:42;;;;;;;5.20;4.67;;;11.60;99.90;;;;;;7373126;19;20380;-73
2021/12/14 11:05:16;;;;;;;6.37;5.23;;;11.70;99.90;;;;;;7375100;19;20400;-73
2021/12/14 11:07:47;;;;;;;7.93;4.60;;;11.90;99.90;;;;;;7377624;19;20406;-72
2021/12/14 11:10:25;;;;;;;7.20;4.40;;;11.70;99.90;;;;;;7378980;19;20404;-73
2021/12/14 11:12:59;;;;;;;9.80;4.60;;;11.70;99.90;;;;;;7374747;19;20767;-73
2021/12/14 11:15:39;;;;;;;5.47;4.77;;;11.80;99.90;;;;;;7383370;19;20419;-73
2021/12/14 11:18:21;;;;;;;6.57;4.60;;;11.90;99.90;;;;;;7380483;19;21036;-73
2021/12/14 11:21:05;;;;;;;5.30;4.23;;;11.90;99.90;;;;;;7384589;19;20380;-73
2021/12/14 11:23:43;;;;;;;5.03;4.10;;;12.30;99.90;;;;;;7379028;19;20368;-73
2021/12/14 11:26:39;;;;;;;5.50;4.80;;;12.70;99.90;;;;;;7376812;19;20912;-73
2021/12/14 11:29:13;;;;;;;6.87;5.33;;;12.90;99.90;;;;;;7374841;19;20430;-73
2021/12/14 11:31:56;;;;;;;7.37;5.03;;;12.60;99.90;;;;;;7373150;19;20901;-73
2021/12/14 11:34:36;;;;;;;7.47;4.87;;;12.40;99.90;;;;;;7382657;19;20383;-73
2021/12/14 11:37:13;;;;;;;9.07;4.67;;;11.70;99.90;;;;;;7370118;19;20412;-73
2021/12/14 11:39:52;;;;;;;6.87;5.67;;;11.50;99.90;;;;;;7368904;19;20376;-74
2021/12/14 11:42:28;;;;;;;8.00;6.33;;;11.30;99.90;;;;;;7374128;19;21112;-75
2021/12/14 11:45:04;;;;;;;8.17;6.13;;;11.00;99.90;;;;;;7381677;19;20455;-74
2021/12/14 11:50:19;;;;;;;5.97;4.93;;;10.60;99.90;;;;;;7380863;19;20432;-75
2021/12/14 11:52:57;;;;;;;7.70;5.40;;;10.70;99.90;;;;;;7381901;19;20471;-74
2021/12/14 11:55:34;;;;;;;7.17;5.00;;;10.70;99.90;;;;;;7373553;19;20423;-74
2021/12/14 11:58:06;;;;;;;8.60;6.07;;;10.70;99.90;;;;;;7352115;19;20362;-73
2021/12/14 12:00:35;;;;;;;8.33;4.93;;;10.30;99.90;;;;;;7373330;19;20404;-71
2021/12/14 12:03:33;;;;;;;6.17;5.30;;;10.30;99.90;;;;;;7370970;19;20412;-72
2021/12/14 12:09:35;;;;;;;8.03;4.80;;;10.20;99.90;;;;;;7374342;19;20377;-72
2021/12/14 12:12:05;;;;;;;7.47;5.20;;;10.50;99.90;;;;;;7372217;19;20405;-72
2021/12/14 12:14:39;;;;;;;8.90;7.23;;;11.00;99.90;;;;;;7371758;19;20405;-72
2021/12/14 12:17:35;;;;;;;8.30;5.60;;;11.10;99.90;;;;;;7375963;19;20383;-72
2021/12/14 12:20:25;;;;;;;7.80;6.97;;;11.30;99.90;;;;;;7377807;19;20965;-72
2021/12/14 12:23:01;;;;;;;10.57;6.87;;;11.50;99.90;;;;;;7373127;19;20486;-72
2021/12/14 12:25:28;;;;;;;9.03;6.37;;;11.30;99.90;;;;;;7372472;19;20470;-75
2021/12/14 12:28:00;;;;;;;13.50;7.33;;;11.30;99.90;;;;;;7376658;19;20424;-78
2021/12/14 12:30:41;;;;;;;10.83;7.30;;;11.10;99.90;;;;;;7377193;19;20484;-77
2021/12/14 12:33:17;;;;;;;16.20;7.53;;;10.90;99.90;;;;;;7380433;19;20375;-79
2021/12/14 12:36:04;;;;;;;10.07;7.03;;;10.60;99.90;;;;;;7367715;19;20797;-75
2021/12/14 12:38:41;;;;;;;9.87;6.47;;;10.60;99.90;;;;;;7366536;19;20408;-83
2021/12/14 12:41:17;;;;;;;9.30;6.60;;;10.60;99.90;;;;;;7366158;19;20821;-75
2021/12/14 12:43:51;;;;;;;12.17;7.43;;;10.50;99.90;;;;;;7367651;19;20428;-76
2021/12/14 12:46:21;;;;;;;10.50;6.80;;;10.60;99.90;;;;;;7360556;19;20828;-76
2021/12/14 12:48:53;;;;;;;10.17;7.13;;;10.70;99.90;;;;;;7365813;19;20412;-77
2021/12/14 12:51:40;;;;;;;10.90;7.37;;;10.80;99.90;;;;;;7379716;19;20408;-76
2021/12/14 12:54:31;;;;;;;9.93;7.00;;;10.80;99.90;;;;;;7381202;19;20429;-76
2021/12/14 12:57:35;;;;;;;9.17;6.73;;;10.90;99.90;;;;;;7388791;19;20423;-76
2021/12/14 13:00:15;;;;;;;11.00;6.80;;;10.80;99.90;;;;;;7370947;19;20396;-76
2021/12/14 13:02:49;;;;;;;9.23;6.70;;;10.70;99.90;;;;;;7369702;19;20376;-76
2021/12/14 13:05:28;;;;;;;9.53;7.33;;;10.60;99.90;;;;;;7364589;19;20379;-70
2021/12/14 13:08:18;;;;;;;10.77;7.63;;;10.70;99.90;;;;;;7360447;19;20431;-70
2021/12/14 13:10:58;;;;;;;10.80;7.83;;;10.80;99.90;;;;;;7377477;19;20372;-70
2021/12/14 13:13:32;;;;;;;12.47;7.43;;;10.80;99.90;;;;;;7380581;19;21207;-70
2021/12/14 13:16:06;;;;;;;9.17;7.07;;;10.60;99.90;;;;;;7374925;19;20360;-70
2021/12/14 13:18:45;;;;;;;9.03;7.00;;;10.50;99.90;;;;;;7353290;19;20434;-70
2021/12/14 13:21:53;;;;;;;8.80;6.90;;;10.60;99.90;;;;;;7380942;19;20905;-70
2021/12/14 13:24:24;;;;;;;15.27;8.73;;;10.70;99.90;;;;;;7377665;19;20388;-70
2021/12/14 13:26:53;;;;;;;14.93;8.57;;;10.50;99.90;;;;;;7377364;19;20400;-70
2021/12/14 13:29:37;;;;;;;7.13;6.43;;;10.30;99.90;;;;;;7373230;19;20379;-74
2021/12/14 13:32:03;;;;;;;10.90;7.47;;;10.30;99.90;;;;;;7375768;19;20475;-74
2021/12/14 13:34:59;;;;;;;12.43;6.83;;;10.20;99.90;;;;;;7365882;19;20148;-74
2021/12/14 13:37:32;;;;;;;10.88;8.35;;;10.30;99.90;;;;;;7369394;19;20512;-75
2021/12/14 13:40:03;;;;;;;11.47;7.07;;;10.10;99.90;;;;;;7376895;19;20144;-75
2021/12/14 13:42:46;;;;;;;9.73;7.20;;;10.00;99.90;;;;;;7379360;19;20409;-75
2021/12/14 13:45:24;;;;;;;10.80;7.90;;;10.10;99.90;;;;;;7368340;19;20135;-74
2021/12/14 13:47:52;;;;;;;10.73;7.75;;;9.90;99.90;;;;;;7380409;19;20621;-75
2021/12/14 13:50:35;;;;;;;13.35;7.82;;;9.70;99.90;;;;;;7379210;19;20570;-75
2021/12/14 13:53:05;;;;;;;14.18;7.70;;;9.50;99.90;;;;;;7376024;19;20471;-74
2021/12/14 13:55:34;;;;;;;14.35;8.85;;;9.40;99.90;;;;;;7375577;19;20171;-75
2021/12/14 13:58:22;;;;;;;14.65;8.35;;;9.30;99.90;;;;;;7385597;19;20520;-75
2021/12/14 14:01:11;;;;;;;10.38;8.23;;;9.30;99.90;;;;;;7374484;19;20128;-75
2021/12/14 14:03:47;;;;;;;9.73;7.03;;;9.40;99.90;;;;;;7373905;19;20127;-75
2021/12/14 14:06:16;;;;;;;9.52;6.53;;;9.50;99.90;;;;;;7377840;19;20609;-75
2021/12/14 14:08:53;;;;;;;9.52;6.60;;;9.50;99.90;;;;;;7367138;19;20143;-74
2021/12/14 14:11:22;;;;;;;9.00;7.00;;;9.60;99.90;;;;;;7374541;19;20199;-73
2021/12/14 14:13:56;;;;;;;9.68;7.72;;;9.70;99.90;;;;;;7361944;19;20215;-75
2021/12/14 14:16:33;;;;;;;10.18;8.20;;;9.70;99.90;;;;;;7370753;19;20143;-74
2021/12/14 14:19:08;;;;;;;13.18;9.20;;;9.70;99.90;;;;;;7371265;19;20135;-74